Terminal Aerodrome Forecast
Issued by NWS Sterling, VA

Home | Current Version | Previous Version | Text Only | Print | Product List | Glossary On
Versions: 1 2 3 4 5 6 7 8 9 10 11 12 13 14 15 16 17 18 19 20 21
000
FTUS41 KLWX 311100
TAFBWI
TAF
KBWI 311136Z 3112/0118 29012G21KT P6SM FEW250
     FM312100 30007KT P6SM FEW250
     FM010400 VRB03KT P6SM SCT050 BKN250
     FM011200 23005KT P6SM BKN040
      TEMPO 0116/0118 4SM -SN OVC030=

USA.gov is the U.S. government's official web portal to all federal, state and local government web resources and services.